YAW weather

Halifax / CFB Shearwater Heliport
Halifax, Nova Scotia, Canada

Public forecast

Using degrees Celsius for public forecast. Weather courtesy of forecast.io.

Current aviation weather report (METAR) for Halifax / CFB Shearwater Heliport

Report is more than 6 hours old.

Retrieved 2020/07/09 03:00 UTC (8 hours ago):

CYAW 090300Z 17013G18KT 4SM -SHRA BR OVC004 15/15 A3001 RMK SF8 DA293FT LAST OBS/NEXT 091500 UTC SLP164

Aviation forecast (TAF) for Halifax / CFB Shearwater Heliport

Forecast is more than 6 hours old.

Retrieved 2020-07-09 00:00 UTC (11 hours ago):

TAF CYAW 082330Z 0900/0906 18010G20KT P6SM SCT006 BKN020 OVC050 TEMPO 0900/0902 5SM -SHRA BR BKN006 OVC015 FM090200 18012G22KT 5SM -SHRA BR SCT004 OVC008 TEMPO 0902/0904 1SM -SHRA BR OVC004 FM090400 19012G22KT 2SM -SHRA BR OVC004 TEMPO 0904/0906 1/2SM SHRA FG OVC002 PROB30 0904/0906 2SM TSRA BR BKN005 OVC020CB RMK NXT FCST BY 090600Z